Latest Weather Observations for Trangie

IDN60801

Issued at 8:02 am EDT Saturday 10 December 2016 (issued every 30 minutes, with the page automatically refreshed every 10 minutes)

About weather observations | Map of weather stations | Latest weather observations for NSW | Other Formats
Station Details ID: 051049 Name: TRANGIE RESEARCH STATION AWS Lat: -31.99 Lon: 147.95 Height: 215.0 m
Data from the previous 72 hours. | See also: Recent months at Trangie
Date/Time
EDT
Temp
°C
App
Temp
°C
Dew
Point
°C
Rel
Hum
%
Delta-T
°C
Wind Press
QNH
hPa
Press
MSL
hPa
Rain since
9am
mm
Dir  Spd
km/h
Gust
km/h
Spd
kts
Gust
kts
10/08:00am 16.3 13.0 4.4 45 5.6 SE 11 17 6 9 1021.5 1020.5 0.0
10/07:30am 14.7 11.9 5.0 52 4.6 ESE 9 15 5 8 1021.2 1020.2 0.0
10/07:00am 12.1 10.1 6.2 67 2.8 SE 6 11 3 6 1020.8 1019.8 0.0
10/06:30am 9.3 6.4 4.5 72 2.2 SSE 9 13 5 7 1020.5 1019.5 0.0
10/06:00am 8.7 6.0 3.9 72 2.1 SSE 7 11 4 6 1020.1 1019.1 0.0
10/05:30am 8.4 5.9 3.7 72 2.1 SE 6 9 3 5 1019.9 1018.8 0.0
10/05:00am 9.2 6.7 3.8 69 2.4 SE 6 9 3 5 1019.7 1018.6 0.0
10/04:30am 9.1 7.0 3.7 69 2.4 S 4 7 2 4 1019.5 1018.4 0.0
10/04:00am 9.1 6.7 4.1 71 2.2 S 6 7 3 4 1019.2 1018.1 0.0
10/03:30am 8.8 6.1 3.6 70 2.3 S 7 9 4 5 1019.1 1018.0 0.0
10/03:00am 9.4 6.9 3.8 68 2.5 S 6 9 3 5 1019.1 1018.0 0.0
10/02:30am 10.0 7.5 4.0 66 2.7 S 6 7 3 4 1019.1 1018.0 0.0
10/02:00am 10.4 7.8 3.4 62 3.1 S 6 7 3 4 1019.2 1018.1 0.0
10/01:30am 11.2 8.7 4.0 61 3.2 S 6 9 3 5 1019.1 1018.0 0.0
10/01:00am 11.7 9.1 4.0 59 3.5 S 7 7 4 4 1019.0 1017.9 0.0
10/12:30am 12.8 10.2 4.0 55 4.0 S 7 11 4 6 1019.2 1018.1 0.0
10/12:00am 13.1 10.1 4.0 54 4.2 S 9 11 5 6 1019.2 1018.1 0.0
 
Date/Time
EDT
Temp
°C
App
Temp
°C
Dew
Point
°C
Rel
Hum
%
Delta-T
°C
Wind Press
QNH
hPa
Press
MSL
hPa
Rain since
9am
mm
Dir  Spd
km/h
Gust
km/h
Spd
kts
Gust
kts
09/11:30pm 13.1 10.1 4.3 55 4.1 SSW 9 9 5 5 1019.2 1018.1 0.0
09/11:00pm 13.6 10.6 4.2 53 4.3 SSW 9 11 5 6 1019.0 1017.9 0.0
09/10:30pm 13.4 10.8 4.0 53 4.3 SSW 7 9 4 5 1018.8 1017.7 0.0
09/10:00pm 13.7 11.2 4.0 52 4.5 S 6 7 3 4 1018.7 1017.6 0.0
09/09:30pm 16.3 13.1 3.0 41 6.1 SSW 9 11 5 6 1018.4 1017.3 0.0
09/09:00pm 16.8 14.0 3.1 40 6.3 S 7 9 4 5 1018.0 1017.0 0.0
09/08:30pm 17.9 14.6 2.2 35 7.2 SSW 9 11 5 6 1017.6 1016.6 0.0
09/08:00pm 19.8 15.7 2.2 31 8.2 SSW 13 19 7 10 1017.3 1016.3 0.0
09/07:30pm 21.7 17.2 1.9 27 9.3 SSW 15 20 8 11 1016.7 1015.7 0.0
09/07:00pm 22.4 16.8 1.4 25 9.8 SSW 20 32 11 17 1016.1 1015.1 0.0
09/06:30pm 22.8 16.4 1.2 24 10.1 SSW 24 37 13 20 1015.7 1014.6 0.0
09/06:00pm 23.4 17.6 2.3 25 10.1 SSW 22 32 12 17 1015.4 1014.3 0.0
09/05:30pm 23.8 17.9 1.4 23 10.6 SW 22 33 12 18 1015.1 1014.0 0.0
09/05:00pm 23.4 17.2 2.3 25 10.1 S 24 37 13 20 1015.3 1014.2 0.0
09/04:30pm 23.0 15.6 1.9 25 10.0 SW 30 39 16 21 1015.5 1014.4 0.0
09/04:00pm 23.3 17.6 2.7 26 9.9 SSW 22 30 12 16 1015.5 1014.4 0.0
09/03:30pm 22.9 17.6 2.9 27 9.7 SSW 20 35 11 19 1015.7 1014.6 0.0
09/03:00pm 22.8 17.0 4.3 30 9.2 SSW 24 39 13 21 1015.8 1014.7 0.0
09/02:30pm 22.5 17.6 4.1 30 9.1 SW 19 39 10 21 1016.1 1015.1 0.0
09/02:00pm 21.1 14.7 3.3 31 8.5 SSW 26 46 14 25 1016.2 1015.2 0.0
09/01:59pm 21.3 14.6 3.5 31 8.6 SSW 28 46 15 25 1016.2 1015.2 0.0
09/01:30pm 21.6 14.9 3.8 31 8.7 SSW 28 39 15 21 1016.3 1015.3 0.0
09/01:00pm 20.6 13.9 3.8 33 8.1 SW 28 41 15 22 1016.5 1015.5 0.0
09/12:40pm 21.2 14.6 4.3 33 8.3 SSW 28 46 15 25 1016.6 1015.6 0.0
09/12:30pm 20.3 14.1 4.4 35 7.8 SSW 26 41 14 22 1016.7 1015.7 0.0
09/12:13pm 21.2 14.8 5.1 35 8.0 SW 28 46 15 25 1016.6 1015.6 0.0
09/12:00pm 20.7 14.4 5.5 37 7.6 SSW 28 44 15 24 1016.5 1015.5 0.0
09/11:32am 20.5 13.7 4.9 36 7.7 SW 30 48 16 26 1016.5 1015.5 0.0
09/11:30am 19.8 13.4 5.1 38 7.3 SW 28 41 15 22 1016.4 1015.4 0.0
09/11:00am 19.0 12.0 4.0 37 7.2 SSW 30 39 16 21 1016.3 1015.3 0.0
09/10:30am 18.7 12.7 7.2 47 5.9 SSW 28 39 15 21 1016.1 1015.1 0.0
09/10:00am 17.4 10.8 6.0 47 5.6 SSW 30 44 16 24 1015.9 1014.9 0.0
09/09:30am 16.2 10.6 7.2 55 4.5 SW 26 39 14 21 1015.7 1014.6 0.0
09/09:00am 15.9 10.2 8.2 60 3.9 SSW 28 35 15 19 1015.8 1014.7 2.0
09/08:30am 15.4 10.3 9.3 67 3.2 SW 26 35 14 19 1015.4 1014.3 2.0
09/08:00am 14.5 9.2 8.5 67 3.1 SSW 26 35 14 19 1014.8 1013.7 2.0
09/07:30am 13.9 9.4 8.5 70 2.7 SW 22 28 12 15 1014.3 1013.2 2.0
09/07:00am 13.1 10.1 9.2 77 2.0 SW 15 19 8 10 1013.8 1012.7 2.0
09/06:30am 11.2 8.8 8.8 85 1.2 SW 11 15 6 8 1013.3 1012.2 2.0
09/06:00am 11.5 8.2 8.2 80 1.6 SW 15 24 8 13 1012.6 1011.6 2.0
09/05:30am 11.9 8.3 8.2 78 1.8 SW 17 20 9 11 1012.1 1011.1 2.0
09/05:00am 12.6 8.6 8.9 78 1.9 SW 20 28 11 15 1011.6 1010.5 2.0
09/04:30am 12.6 10.2 10.0 84 1.3 WSW 13 17 7 9 1011.1 1010.0 2.0
09/04:00am 13.0 10.2 11.2 89 1.0 WSW 17 22 9 12 1010.9 1009.8 2.0
09/03:30am 13.0 11.1 11.7 92 0.7 WSW 13 17 7 9 1010.6 1009.5 2.0
09/03:00am 12.9 11.3 11.6 92 0.7 W 11 15 6 8 1010.4 1009.3 1.8
09/02:30am 13.3 11.5 12.0 92 0.7 W 13 17 7 9 1010.4 1009.3 1.8
09/02:00am 13.7 11.6 12.3 91 0.8 WSW 15 19 8 10 1010.2 1009.1 1.8
09/01:30am 14.0 11.9 12.4 90 0.9 W 15 19 8 10 1010.1 1009.0 1.8
09/01:00am 14.3 12.6 12.5 89 1.0 WSW 13 15 7 8 1010.1 1009.0 1.8
09/12:30am 14.7 13.1 12.7 88 1.1 W 13 17 7 9 1010.3 1009.2 1.8
09/12:00am 15.0 14.5 12.7 86 1.3 WSW 7 9 4 5 1009.6 1008.5 1.8
 
Date/Time
EDT
Temp
°C
App
Temp
°C
Dew
Point
°C
Rel
Hum
%
Delta-T
°C
Wind Press
QNH
hPa
Press
MSL
hPa
Rain since
9am
mm
Dir  Spd
km/h
Gust
km/h
Spd
kts
Gust
kts
08/11:30pm 15.7 14.0 12.6 82 1.7 SSW 13 17 7 9 1008.9 1007.8 1.8
08/11:00pm 16.1 13.2 12.3 78 2.1 SSW 19 30 10 16 1008.1 1007.1 1.8
08/10:30pm 16.4 14.1 12.9 80 2.0 SSW 17 26 9 14 1007.9 1006.9 1.8
08/10:00pm 16.5 13.3 13.0 80 2.0 SSW 22 35 12 19 1007.5 1006.4 1.8
08/09:30pm 17.0 13.9 14.5 85 1.4 SSW 24 35 13 19 1007.0 1005.9 1.8
08/09:00pm 17.4 11.7 15.2 87 1.3 SW 39 57 21 31 1006.4 1005.3 1.8
08/08:38pm 20.5 18.5 19.2 92 0.8 SSW 28 46 15 25 1005.1 1004.0 1.8
08/08:30pm 20.4 19.5 19.1 92 0.8 SW 22 28 12 15 1005.3 1004.2 1.8
08/08:00pm 20.3 19.3 18.8 91 1.0 WSW 22 32 12 17 1005.3 1004.2 1.8
08/07:30pm 20.6 16.8 18.0 85 1.6 W 35 50 19 27 1006.1 1005.0 0.2
08/07:28pm 20.7 16.4 17.9 84 1.7 W 37 50 20 27 1006.2 1005.1 0.2
08/07:00pm 25.3 19.0 15.6 55 6.0 WSW 43 56 23 30 1004.2 1003.1 0.0
08/06:39pm 27.3 20.5 14.7 46 7.7 SW 44 80 24 43 1002.8 1001.7 0.0
08/06:36pm 27.3 21.4 14.7 46 7.7 SW 39 57 21 31 1002.6 1001.5 0.0
08/06:30pm 27.2 21.3 14.6 46 7.6 SW 39 56 21 30 1002.0 1000.9 0.0
08/06:00pm 29.7 21.9 13.0 35 10.0 WSW 46 74 25 40 1000.9 999.8 0.0
08/05:54pm 31.0 24.2 11.9 31 11.3 W 39 74 21 40 1000.4 999.3 0.0
08/05:53pm 31.7 25.5 11.5 29 11.9 W 35 74 19 40 1000.3 999.2 0.0
08/05:52pm 33.5 27.5 10.8 25 13.3 W 33 65 18 35 1000.2 999.1 0.0
08/05:31pm 35.6 30.1 9.2 20 15.3 WNW 28 46 15 25 999.5 998.4 0.0
08/05:30pm 35.2 29.8 9.6 21 14.9 WNW 28 39 15 21 999.5 998.4 0.0
08/05:00pm 36.4 29.9 9.1 19 15.9 WNW 33 56 18 30 999.3 998.1 0.0
08/04:31pm 36.5 30.4 10.6 21 15.3 WNW 33 52 18 28 999.4 998.2 0.0
08/04:30pm 36.7 30.3 10.8 21 15.4 WNW 35 52 19 28 999.5 998.4 0.0
08/04:22pm 37.2 30.5 9.7 19 16.1 NW 35 52 19 28 999.5 998.4 0.0
08/04:13pm 36.4 30.1 9.8 20 15.6 NW 33 52 18 28 999.5 998.4 0.0
08/04:07pm 36.2 30.7 10.4 21 15.2 NW 30 46 16 25 999.7 998.6 0.0
08/04:00pm 36.6 31.1 10.7 21 15.4 WNW 30 48 16 26 999.7 998.6 0.0
08/03:59pm 36.9 30.9 10.2 20 15.7 WNW 32 48 17 26 999.8 998.7 0.0
08/03:53pm 36.6 30.4 10.0 20 15.6 NW 33 48 18 26 999.8 998.7 0.0
08/03:30pm 36.2 30.3 10.4 21 15.2 NW 32 52 17 28 1000.0 998.9 0.0
08/03:01pm 36.8 30.3 10.2 20 15.7 WNW 35 61 19 33 1000.7 999.6 0.0
08/03:00pm 36.8 30.8 10.2 20 15.7 WNW 32 46 17 25 1000.8 999.7 0.0
08/02:46pm 35.4 29.7 11.1 23 14.4 WNW 32 50 17 27 1001.3 1000.2 0.0
08/02:36pm 36.0 30.1 12.3 24 14.4 WNW 35 57 19 31 1001.5 1000.4 0.0
08/02:30pm 35.3 29.9 12.3 25 13.9 NW 32 57 17 31 1001.7 1000.6 0.0
08/02:18pm 36.3 30.6 11.9 23 14.7 NW 33 54 18 29 1001.9 1000.8 0.0
08/02:00pm 36.1 29.6 10.3 21 15.2 NW 35 48 19 26 1002.4 1001.3 0.0
08/01:52pm 35.7 30.1 13.2 26 13.8 WNW 35 52 19 28 1002.6 1001.5 0.0
08/01:46pm 35.1 28.9 12.7 26 13.6 WNW 37 56 20 30 1002.6 1001.5 0.0
08/01:43pm 35.1 29.5 13.3 27 13.4 NW 35 56 19 30 1002.8 1001.7 0.0
08/01:42pm 35.1 29.3 12.7 26 13.6 NW 35 56 19 30 1002.8 1001.7 0.0
08/01:30pm 35.4 30.1 14.1 28 13.2 NW 35 48 19 26 1003.1 1002.0 0.0
08/01:00pm 34.6 29.4 13.4 28 13.0 NW 33 52 18 28 1003.8 1002.7 0.0
08/12:30pm 34.0 28.2 15.0 32 11.9 NW 39 57 21 31 1004.5 1003.4 0.0
08/12:15pm 34.3 29.4 15.2 31 12.0 NNW 35 61 19 33 1004.8 1003.7 0.0
08/12:00pm 32.7 27.0 15.2 34 11.0 NW 39 56 21 30 1005.2 1004.1 0.0
08/11:31am 32.3 27.1 14.4 33 11.0 NNW 35 54 19 29 1005.7 1004.6 0.0
08/11:30am 32.8 27.7 14.9 34 11.1 NNW 35 52 19 28 1005.7 1004.6 0.0
08/11:18am 32.9 27.5 15.0 34 11.2 NW 37 57 20 31 1005.9 1004.8 0.0
08/11:00am 32.4 27.8 14.5 33 11.1 NW 32 46 17 25 1006.0 1004.9 0.0
08/10:39am 31.8 27.3 14.9 36 10.5 NNW 32 50 17 27 1006.4 1005.3 0.0
08/10:30am 31.4 26.1 14.1 35 10.6 NNW 35 46 19 25 1006.6 1005.5 0.0
08/10:11am 30.6 26.4 13.4 35 10.4 NNW 28 46 15 25 1006.7 1005.6 0.0
08/10:00am 30.1 24.8 12.5 34 10.5 NNW 32 44 17 24 1006.9 1005.8 0.0
08/09:30am 29.2 25.9 11.7 34 10.2 NNW 20 32 11 17 1007.2 1006.1 0.0
08/09:00am 27.4 24.4 10.6 35 9.6 N 17 24 9 13 1007.7 1006.7 0.0
08/08:30am 25.1 23.4 12.3 45 7.4 N 13 17 7 9 1008.2 1007.2 0.0
08/08:00am 23.2 22.1 13.1 53 5.9 NNE 11 17 6 9 1008.3 1007.3 0.0
08/07:30am 21.4 20.7 14.3 64 4.2 NE 11 19 6 10 1008.8 1007.7 0.0
08/07:00am 19.5 19.5 14.3 72 3.0 E 7 9 4 5 1008.7 1007.6 0.0
08/06:30am 17.6 17.4 13.7 78 2.2 E 7 11 4 6 1008.5 1007.4 0.0
08/06:00am 17.0 16.1 12.7 76 2.4 E 9 11 5 6 1008.2 1007.2 0.0
08/05:30am 17.1 16.0 12.0 72 2.8 E 9 13 5 7 1008.3 1007.3 0.0
08/05:00am 17.0 15.7 11.3 69 3.1 E 9 11 5 6 1008.2 1007.2 0.0
08/04:30am 17.1 16.0 10.5 65 3.6 E 7 11 4 6 1008.2 1007.2 0.0
08/04:00am 16.6 15.3 10.0 65 3.5 ESE 7 11 4 6 1008.6 1007.5 0.0
08/03:30am 16.9 15.6 10.1 64 3.6 E 7 9 4 5 1008.9 1007.8 0.0
08/03:00am 16.3 15.9 11.0 71 2.9 ESE 4 7 2 4 1009.2 1008.1 0.0
08/02:30am 16.7 17.0 10.8 68 3.2 CALM 0 0 0 0 1009.5 1008.4 0.0
08/02:00am 17.3 16.5 11.1 67 3.4 ESE 6 7 3 4 1009.8 1008.7 0.0
08/01:30am 17.5 17.9 11.1 66 3.5 CALM 0 7 0 4 1010.2 1009.1 0.0
08/01:00am 18.4 17.4 10.3 59 4.4 ESE 6 7 3 4 1010.4 1009.3 0.0
08/12:30am 19.5 18.6 10.5 56 4.9 ESE 6 7 3 4 1010.6 1009.5 0.0
08/12:00am 18.8 17.3 10.6 59 4.5 SE 9 13 5 7 1011.0 1009.9 0.0
 
Date/Time
EDT
Temp
°C
App
Temp
°C
Dew
Point
°C
Rel
Hum
%
Delta-T
°C
Wind Press
QNH
hPa
Press
MSL
hPa
Rain since
9am
mm
Dir  Spd
km/h
Gust
km/h
Spd
kts
Gust
kts
07/11:30pm 19.6 19.2 11.1 58 4.7 ESE 4 9 2 5 1011.3 1010.2 0.0
07/11:00pm 19.9 20.7 12.7 63 4.1 CALM 0 0 0 0 1011.6 1010.5 0.0
07/10:30pm 19.9 19.4 12.2 61 4.3 ESE 6 6 3 3 1011.6 1010.5 0.0
07/10:00pm 21.2 21.7 11.5 54 5.4 CALM 0 0 0 0 1011.6 1010.5 0.0
07/09:30pm 21.7 21.6 10.8 50 6.1 SE 2 6 1 3 1011.7 1010.6 0.0
07/09:00pm 23.5 23.7 10.6 44 7.2 CALM 0 0 0 0 1011.7 1010.6 0.0
07/08:30pm 24.6 24.5 9.3 38 8.4 CALM 0 0 0 0 1011.8 1010.8 0.0
07/08:00pm 27.7 26.2 8.6 30 10.5 SW 6 7 3 4 1011.8 1010.8 0.0
07/07:30pm 30.5 30.0 7.7 24 12.6 CALM 0 0 0 0 1011.7 1010.6 0.0
07/07:00pm 31.1 29.2 7.5 23 13.0 SW 7 11 4 6 1011.7 1010.6 0.0
07/06:30pm 31.6 29.4 8.0 23 13.1 WSW 9 13 5 7 1011.8 1010.8 0.0
07/06:00pm 31.4 28.6 7.1 22 13.3 WSW 11 19 6 10 1011.7 1010.6 0.0
07/05:30pm 31.7 28.8 6.7 21 13.6 SSW 11 17 6 9 1011.7 1010.6 0.0
07/05:00pm 31.6 28.3 6.6 21 13.6 SW 13 20 7 11 1011.6 1010.5 0.0
07/04:30pm 31.8 29.5 7.5 22 13.4 WSW 9 19 5 10 1012.2 1011.2 0.0
07/04:00pm 30.8 28.2 6.0 21 13.3 SSW 9 17 5 9 1012.6 1011.6 0.0
07/03:30pm 31.2 28.0 7.0 22 13.2 SW 13 24 7 13 1013.0 1012.0 0.0
07/03:00pm 30.8 27.7 7.3 23 12.9 S 13 24 7 13 1013.3 1012.2 0.0
07/02:30pm 29.9 27.0 8.3 26 12.0 W 13 20 7 11 1013.8 1012.7 0.0
07/02:00pm 29.6 26.6 9.2 28 11.5 SSW 15 22 8 12 1014.2 1013.1 0.0
07/01:30pm 28.8 26.4 8.5 28 11.2 W 11 22 6 12 1014.6 1013.5 0.0
07/01:00pm 28.0 25.8 7.8 28 11.0 SSW 9 17 5 9 1015.1 1014.0 0.0
07/12:30pm 27.6 25.5 9.9 33 10.0 SSE 11 22 6 12 1015.5 1014.4 0.0
07/12:00pm 26.7 25.5 9.5 34 9.6 SE 6 15 3 8 1015.6 1014.5 0.0
07/11:30am 25.9 24.2 9.7 36 9.0 SW 9 15 5 8 1016.0 1015.0 0.0
07/11:00am 24.8 23.5 9.9 39 8.3 SSW 7 13 4 7 1016.1 1015.1 0.0
07/10:30am 24.3 23.7 13.5 51 6.4 SSE 9 13 5 7 1016.3 1015.3 0.0
07/10:00am 23.4 22.8 13.6 54 5.8 SSE 9 17 5 9 1016.2 1015.2 0.0
07/09:30am 21.7 20.2 12.0 54 5.5 S 11 17 6 9 1016.3 1015.3 0.0
07/09:00am 21.1 20.0 13.0 60 4.7 SSE 11 15 6 8 1016.0 1015.0 2.2
07/08:30am 20.0 18.9 13.2 65 3.9 SSW 11 15 6 8 1015.8 1014.7 2.2

Other Formats:

Comma delimited format used in spreadsheet applications
http://www.bom.gov.au/fwo/IDN60801/IDN60801.95710.axf

JavaScript Object Notation format (JSON) in row-major order
http://www.bom.gov.au/fwo/IDN60801/IDN60801.95710.json